Flight Track Log - Related Links

Times and Time Zones

All times are in EDT time to prevent confusion due to time zone crossing. See the N1560T flight status page for this flight to view local times or setup timezone preferences in your user account.


Time Position Orientation Groundspeed Altitude Reporting Facility
EDT Latitude Longitude Course Direction KTS MPH feet Rate Location/Type
Thu 05:10:23 PM 41.7447 -86.3733 341° North 150 173 2,900  Level Chicago Center
Thu 05:11:25 PM 41.7858 -86.3919 341° North 152 175 4,400 1,403 Climbing Chicago Center
Thu 05:12:27 PM 41.8289 -86.4094 343° North 157 181 5,800 1,548 Climbing Chicago Center
Thu 05:13:29 PM 41.8786 -86.4328 341° North 157 181 7,600 1,548 Climbing Chicago Center
Thu 05:14:31 PM 41.9211 -86.4531 340° North 159 183 9,000 1,344 Climbing Chicago Center
Thu 05:15:34 PM 41.9664 -86.4731 342° North 165 190 10,400 1,344 Climbing Chicago Center
Thu 05:16:36 PM 42.0103 -86.4933 341° North 166 191 11,800 1,355 Climbing Chicago Center
Thu 05:17:38 PM 42.0550 -86.5128 342° North 167 192 13,200 1,065 Climbing Chicago Center
Thu 05:18:40 PM 42.0994 -86.5347 340° North 168 193 14,000 823 Climbing Chicago Center
Thu 05:19:42 PM 42.1639 -86.5622 342° North 201 231 14,900 919 Climbing Chicago Center
Thu 05:20:44 PM 42.2142 -86.5853 341° North 195 224 15,900 528 Climbing Chicago Center
Thu 05:21:47 PM 42.2408 -86.6447 301° West 202 232 16,000 48 Climbing Chicago Center
Thu 05:22:49 PM 42.2700 -86.7211 297° West 214 246 16,000  Level Chicago Center
Thu 05:23:51 PM 42.2989 -86.7931 299° West 216 249 16,000  Level Chicago Center
Thu 05:24:53 PM 42.3242 -86.8650 295° West 216 249 16,000  Level Chicago Center
Thu 05:25:55 PM 42.3522 -86.9383 297° West 216 249 16,000  Level Chicago Center
Thu 05:26:57 PM 42.3808 -87.0103 298° West 217 250 16,000  Level Chicago Center
Thu 05:27:59 PM 42.4122 -87.0972 296° West 216 249 16,000  Level Chicago Center
Thu 05:29:01 PM 42.4397 -87.1700 297° West 217 250 16,000  Level Chicago Center
Thu 05:30:04 PM 42.4639 -87.2461 293° West 217 250 16,000  Level Chicago Center
Thu 05:31:06 PM 42.4903 -87.3219 295° West 219 252 16,000  Level Chicago Center
Thu 05:32:08 PM 42.5089 -87.3972 289° West 218 251 16,000  Level Chicago Center
Thu 05:33:10 PM 42.5397 -87.4778 297° West 204 235 16,000  Level Chicago Center
Thu 05:34:12 PM 42.5667 -87.5481 298° West 208 239 16,000  Level Chicago Center
Thu 05:35:14 PM 42.5953 -87.6267 296° West 215 247 16,000  Level Chicago Center
Thu 05:36:17 PM 42.6222 -87.6978 297° West 215 247 16,000  Level Chicago Center
Thu 05:37:19 PM 42.6497 -87.7694 298° West 215 247 16,000  Level Chicago Center
Thu 05:38:21 PM 42.6772 -87.8431 297° West 219 252 16,000  Level Chicago Center
Thu 05:39:23 PM 42.7047 -87.9175 297° West 219 252 16,000 -48 Level Chicago Center
Thu 05:40:25 PM 42.7381 -88.0061 297° West 219 252 15,900  Descending Chicago Center
Thu 05:41:27 PM 42.7656 -88.0803 297° West 220 253 16,000 48 Climbing Chicago Center
Thu 05:42:29 PM 42.7925 -88.1544 296° West 220 253 16,000  Level Chicago Center
Thu 05:43:31 PM 42.8203 -88.2286 297° West 220 253 16,000  Level Chicago Center
Thu 05:44:33 PM 42.8475 -88.3028 297° West 221 254 16,000  Level Chicago Center
Thu 05:45:36 PM 42.8747 -88.3778 296° West 220 253 16,000  Level Chicago Center
Thu 05:46:38 PM 42.9083 -88.4661 297° West 219 252 16,000  Level Chicago Center
Thu 05:47:40 PM 42.9347 -88.5419 295° West 220 253 16,000  Level Chicago Center
Thu 05:48:42 PM 42.9628 -88.6183 297° West 222 255 16,000  Level Chicago Center
Thu 05:49:44 PM 42.9892 -88.6928 296° West 221 254 16,000  Level Chicago Center
Thu 05:50:46 PM 43.0181 -88.7686 298° West 221 254 16,000  Level Chicago Center
Thu 05:51:48 PM 43.0453 -88.8444 296° West 221 254 16,000  Level Chicago Center
Thu 05:52:50 PM 43.0717 -88.9200 296° West 221 254 16,000  Level Chicago Center
Thu 05:53:53 PM 43.1053 -89.0128 296° West 222 255 16,000  Level Chicago Center
Thu 05:54:55 PM 43.1331 -89.0886 297° West 223 257 16,000  Level Chicago Center
Thu 05:55:57 PM 43.1556 -89.1694 291° West 226 260 16,000  Level Chicago Center
Thu 05:56:59 PM 43.1836 -89.2453 297° West 225 259 16,000  Level Chicago Center
Thu 05:58:01 PM 43.2103 -89.3219 296° West 225 259 16,000  Level Chicago Center
Thu 05:59:03 PM 43.2378 -89.3992 296° West 224 258 16,000  Level Chicago Center
Thu 06:00:06 PM 43.2703 -89.4908 296° West 224 258 16,000  Level Chicago Center
Thu 06:01:08 PM 43.2972 -89.5681 296° West 224 258 16,000  Level Chicago Center
Thu 06:02:10 PM 43.3242 -89.6447 296° West 224 258 16,000  Level Chicago Center
Thu 06:03:12 PM 43.3525 -89.7228 297° West 225 259 16,000  Level Chicago Center
Thu 06:04:14 PM 43.3794 -89.8019 295° West 225 259 16,000 -48 Level Chicago Center
Thu 06:05:16 PM 43.4081 -89.8803 297° West 227 261 15,900 -48 Descending Chicago Center
Thu 06:06:18 PM 43.4406 -89.9756 295° West 228 262 15,900  Level Chicago Center
Thu 06:07:21 PM 43.4686 -90.0547 296° West 229 264 15,900  Level Chicago Center
Thu 06:08:23 PM 43.4956 -90.1347 295° West 230 265 15,900 -532 Level Chicago Center
Thu 06:09:25 PM 43.5253 -90.2189 296° West 241 277 14,800 -1,161 Descending Chicago Center
Thu 06:10:27 PM 43.5594 -90.3161 296° West 248 285 13,500 -1,306 Descending Chicago Center
Thu 06:11:29 PM 43.5886 -90.4011 295° West 248 285 12,100 -1,306 Descending Chicago Center
Thu 06:12:31 PM 43.6181 -90.4828 296° West 245 282 10,800 -1,306 Descending Chicago Center
Thu 06:13:33 PM 43.6431 -90.5600 294° West 234 269 9,400 -1,488 Descending Chicago Center
Thu 06:14:36 PM 43.6747 -90.6531 295° West 229 264 7,700 -1,536 Descending Chicago Center
Thu 06:15:38 PM 43.7017 -90.7314 295° West 229 264 6,200 -823 Descending Chicago Center
Thu 06:16:40 PM 43.7247 -90.7989 295° West 202 232 6,000 -290 Descending Chicago Center
Thu 06:17:42 PM 43.7453 -90.8597 295° West 180 207 5,600 -581 Descending Chicago Center
Thu 06:18:44 PM 43.7664 -90.9233 295° West 180 207 4,800 -871 Descending Chicago Center
Thu 06:19:46 PM 43.7917 -91.0039 294° West 185 213 3,800 -912 Descending Chicago Center
Thu 06:20:49 PM 43.8122 -91.0711 293° West 188 216 2,900 -480 Descending Chicago Center
Thu 06:21:51 PM 43.8294 -91.1364 290° West 188 216 2,800 -97 Descending Chicago Center
Thu 06:22:53 PM 43.8456 -91.2003 289° West 187 215 2,700 -97 Descending Chicago Center

Login

Don't have an account? Register now (free) for customized features, flight alerts, and more!